Time;durP1;ratioP1;P1;durP2;ratioP2;P2;SDS_P1;SDS_P2;PMS_P1;PMS_P2;Temp;Humidity;BMP_temperature;BMP_pressure;BME280_temperature;BME280_humidity;BME280_pressure;Samples;Min_cycle;Max_cycle;Signal;HPM_P1;HPM_P2
2021/05/02 00:00:34;;;;;;;7.10;4.80;;;;;;;18.61;55.55;99810.69;2062362;28;20116;-63
2021/05/02 00:01:35;;;;;;;7.57;4.85;;;;;;;18.62;55.50;99806.97;2061822;28;20265;-62
2021/05/02 00:02:36;;;;;;;7.57;5.47;;;;;;;18.62;55.58;99806.97;2061917;28;20026;-62
2021/05/02 00:03:37;;;;;;;6.20;4.90;;;;;;;18.64;55.52;99813.09;2061825;28;20045;-62
2021/05/02 00:04:37;;;;;;;6.47;4.70;;;;;;;18.64;55.56;99808.50;2058900;28;20022;-62
2021/05/02 00:05:38;;;;;;;7.50;4.90;;;;;;;18.65;55.56;99806.63;2060936;28;20041;-62
2021/05/02 00:06:39;;;;;;;6.97;5.93;;;;;;;18.65;55.45;99820.28;2056608;28;20027;-62
2021/05/02 00:07:40;;;;;;;6.47;4.40;;;;;;;18.64;55.46;99808.50;2060510;28;20072;-62
2021/05/02 00:08:40;;;;;;;7.27;5.00;;;;;;;18.62;55.45;99809.69;2064185;28;20125;-62
2021/05/02 00:09:41;;;;;;;5.23;4.40;;;;;;;18.63;55.52;99811.38;2060930;28;20258;-62
2021/05/02 00:10:41;;;;;;;7.80;5.20;;;;;;;18.62;55.53;99815.16;2063958;28;20074;-62
2021/05/02 00:11:42;;;;;;;6.43;5.40;;;;;;;18.62;55.46;99810.53;2063682;28;20041;-62
2021/05/02 00:12:44;;;;;;;6.90;4.93;;;;;;;18.62;55.49;99806.97;2062747;28;20135;-63
2021/05/02 00:13:44;;;;;;;6.97;5.20;;;;;;;18.62;55.64;99804.22;2057955;28;20038;-63
2021/05/02 00:14:45;;;;;;;6.50;4.87;;;;;;;18.60;55.65;99817.16;2061089;28;20038;-62
2021/05/02 00:15:45;;;;;;;6.07;5.30;;;;;;;18.59;55.52;99816.31;2063946;28;20060;-62
2021/05/02 00:16:46;;;;;;;6.37;4.70;;;;;;;18.59;55.65;99819.03;2063741;28;20031;-63
2021/05/02 00:17:48;;;;;;;6.50;4.83;;;;;;;18.58;55.69;99809.13;2063838;28;20062;-63
2021/05/02 00:18:49;;;;;;;7.45;4.88;;;;;;;18.59;55.44;99807.25;2059505;28;20038;-62
2021/05/02 00:19:49;;;;;;;6.93;5.30;;;;;;;18.59;55.60;99809.97;2062246;28;20032;-63
2021/05/02 00:20:55;;;;;;;6.70;5.03;;;;;;;18.59;55.53;99815.44;2062309;28;20044;-62
2021/05/02 00:21:56;;;;;;;7.63;5.70;;;;;;;18.61;55.70;99813.41;2060492;28;20568;-62
2021/05/02 00:23:01;;;;;;;5.73;4.80;;;;;;;18.59;55.59;99816.31;2061012;28;20736;-62
2021/05/02 00:24:03;;;;;;;8.50;5.63;;;;;;;18.59;55.51;99815.44;2060275;28;20932;-62
2021/05/02 00:25:06;;;;;;;7.10;4.50;;;;;;;18.59;55.69;99820.88;2060289;28;20791;-62
2021/05/02 00:26:07;;;;;;;7.70;5.00;;;;;;;18.59;55.76;99820.88;2063615;28;20366;-62
2021/05/02 00:27:08;;;;;;;6.55;4.85;;;;;;;18.58;55.75;99819.19;2062139;28;20038;-62
2021/05/02 00:28:09;;;;;;;6.17;5.20;;;;;;;18.57;55.59;99812.00;2062759;28;20126;-62
2021/05/02 00:29:14;;;;;;;6.43;5.10;;;;;;;18.57;55.66;99817.44;2063836;28;20080;-62
2021/05/02 00:30:17;;;;;;;7.65;5.43;;;;;;;18.58;55.83;99816.44;2060749;28;20373;-62
2021/05/02 00:31:18;;;;;;;7.82;5.00;;;;;;;18.57;55.70;99817.44;2063245;28;20404;-62
2021/05/02 00:32:19;;;;;;;6.90;4.87;;;;;;;18.57;55.76;99820.19;2062203;28;20739;-62
2021/05/02 00:33:19;;;;;;;5.77;4.70;;;;;;;18.57;55.62;99823.78;2063066;28;20022;-62
2021/05/02 00:34:20;;;;;;;8.00;4.77;;;;;;;18.57;55.67;99822.91;2063966;28;20026;-62
2021/05/02 00:35:23;;;;;;;5.17;4.30;;;;;;;18.56;55.73;99823.94;2061074;28;20050;-62
2021/05/02 00:36:24;;;;;;;5.40;4.63;;;;;;;18.55;55.60;99820.34;2061265;28;20113;-62
2021/05/02 00:37:25;;;;;;;5.78;4.35;;;;;;;18.57;55.54;99820.19;2063360;28;20517;-62
2021/05/02 00:38:26;;;;;;;6.60;4.93;;;;;;;18.56;55.62;99821.19;2063208;28;20409;-62
2021/05/02 00:39:27;;;;;;;6.80;5.17;;;;;;;18.54;55.86;99818.63;2063119;28;20578;-62
2021/05/02 00:40:35;;;;;;;6.90;5.30;;;;;;;18.55;55.78;99819.50;2062334;28;20029;-62
2021/05/02 00:41:37;;;;;;;5.88;4.38;;;;;;;18.56;55.69;99823.94;2055441;28;20035;-63
2021/05/02 00:42:40;;;;;;;;;;;;;;;18.52;55.76;99825.25;2060173;28;20057;-62
2021/05/02 00:43:50;;;;;;;;;;;;;;;18.48;55.79;99826.56;2063707;28;20426;-62
2021/05/02 00:45:01;;;;;;;7.57;4.75;;;;;;;18.48;55.80;99818.38;2063555;28;20449;-62
2021/05/02 00:46:10;;;;;;;7.18;4.63;;;;;;;18.49;55.86;99820.94;2059615;28;20173;-62
2021/05/02 00:47:15;;;;;;;6.03;4.80;;;;;;;18.48;55.75;99810.19;2063566;28;20038;-62
2021/05/02 00:48:35;;;;;;;8.88;5.15;;;;;;;18.49;55.92;99820.09;2063355;28;20057;-62
2021/05/02 00:49:38;;;;;;;8.07;5.53;;;;;;;18.50;55.71;99816.38;2061044;28;20034;-62
2021/05/02 00:51:00;;;;;;;7.28;5.30;;;;;;;18.50;55.93;99816.38;2061321;28;20045;-63
2021/05/02 00:52:10;;;;;;;6.00;4.72;;;;;;;18.48;55.85;99819.25;2062749;28;20114;-62
2021/05/02 00:53:21;;;;;;;7.07;5.05;;;;;;;18.48;55.87;99812.94;2063420;28;20029;-63
2021/05/02 00:54:35;;;;;;;5.50;4.40;;;;;;;18.48;55.80;99812.94;2063303;28;20027;-62
2021/05/02 00:55:47;;;;;;;5.18;4.43;;;;;;;18.48;55.80;99818.38;2063428;28;20022;-62
2021/05/02 00:56:50;;;;;;;7.60;5.00;;;;;;;18.51;55.75;99823.53;2062766;28;20042;-62
2021/05/02 00:57:58;;;;;;;5.82;4.53;;;;;;;18.50;55.81;99816.38;2062297;28;20033;-63
2021/05/02 00:59:04;;;;;;;5.93;4.95;;;;;;;18.49;55.71;99814.63;2063175;28;20085;-62
2021/05/02 01:00:07;;;;;;;5.15;4.15;;;;;;;18.50;55.77;99810.91;2063327;28;20040;-63
2021/05/02 01:01:08;;;;;;;6.57;4.72;;;;;;;18.49;55.78;99818.22;2062809;28;20829;-62
2021/05/02 01:02:12;;;;;;;7.85;5.10;;;;;;;18.49;55.72;99814.63;2062704;28;20027;-63
2021/05/02 01:03:13;;;;;;;7.45;5.43;;;;;;;18.49;55.69;99820.09;2061834;28;20030;-62
2021/05/02 01:04:20;;;;;;;8.95;5.32;;;;;;;18.48;55.58;99813.78;2061620;28;20034;-62
2021/05/02 01:05:21;;;;;;;6.30;5.07;;;;;;;18.49;55.72;99817.38;2061901;28;20042;-62
2021/05/02 01:06:24;;;;;;;7.70;5.57;;;;;;;18.50;55.70;99810.91;2056564;28;20743;-62
2021/05/02 01:07:29;;;;;;;8.15;5.15;;;;;;;18.49;55.79;99814.63;2063338;28;20030;-62
2021/05/02 01:08:30;;;;;;;6.10;4.47;;;;;;;18.49;55.71;99814.63;2062879;28;20080;-62
2021/05/02 01:09:32;;;;;;;7.72;4.70;;;;;;;18.49;55.70;99817.38;2062905;28;20161;-63
2021/05/02 01:10:32;;;;;;;6.68;4.60;;;;;;;18.48;55.69;99808.31;2063383;28;20034;-62
2021/05/02 01:11:36;;;;;;;7.20;4.60;;;;;;;18.49;55.70;99814.63;2062526;28;20041;-62
2021/05/02 01:12:41;;;;;;;6.63;4.60;;;;;;;18.50;55.73;99819.09;2063212;28;20026;-62
2021/05/02 01:13:53;;;;;;;5.30;4.03;;;;;;;18.50;55.75;99816.38;2062238;28;20609;-62
2021/05/02 01:14:55;;;;;;;5.80;4.75;;;;;;;18.51;55.67;99807.16;2062712;28;20030;-62
2021/05/02 01:15:59;;;;;;;4.93;4.18;;;;;;;18.49;55.83;99811.91;2062445;28;20173;-62
2021/05/02 01:16:59;;;;;;;5.10;4.40;;;;;;;18.51;55.74;99812.63;2061347;28;20034;-63
2021/05/02 01:18:01;;;;;;;6.57;4.43;;;;;;;18.51;55.78;99818.94;2062965;28;20034;-63
2021/05/02 01:19:07;;;;;;;5.55;4.25;;;;;;;18.52;55.80;99817.94;2062512;28;20026;-63
2021/05/02 01:20:13;;;;;;;6.18;4.60;;;;;;;18.53;55.90;99816.06;2062490;28;20030;-63
2021/05/02 01:21:15;;;;;;;5.88;4.18;;;;;;;18.54;55.96;99817.75;2062867;28;20237;-62
2021/05/02 01:22:16;;;;;;;;;;;;;;;18.49;55.88;99818.22;2058192;28;20041;-63
2021/05/02 01:23:17;;;;;;;6.75;5.25;;;;;;;18.50;55.91;99821.81;2062971;28;19921;-62
2021/05/02 01:24:18;;;;;;;5.40;4.30;;;;;;;18.52;55.97;99819.78;2062416;28;20030;-62
2021/05/02 01:25:21;;;;;;;5.78;4.38;;;;;;;18.51;56.00;99812.63;2061087;28;20037;-62
2021/05/02 01:26:22;;;;;;;6.22;4.40;;;;;;;18.52;56.05;99817.06;2060457;28;20035;-62
2021/05/02 01:27:31;;;;;;;6.32;4.50;;;;;;;18.52;55.83;99822.50;2063596;28;20061;-63
2021/05/02 01:28:34;;;;;;;7.15;4.25;;;;;;;18.54;55.96;99817.75;2062033;28;20054;-62
2021/05/02 01:29:35;;;;;;;6.43;4.50;;;;;;;18.54;55.90;99817.75;2062833;28;20074;-62
2021/05/02 01:30:36;;;;;;;9.20;5.10;;;;;;;18.53;55.81;99816.91;2062246;28;20034;-62
2021/05/02 01:31:38;;;;;;;6.57;5.00;;;;;;;18.53;55.61;99816.06;2062704;28;20040;-62
2021/05/02 01:32:38;;;;;;;7.78;4.53;;;;;;;18.53;55.91;99816.06;2063510;28;20034;-62
2021/05/02 01:33:40;;;;;;;6.37;4.37;;;;;;;18.52;55.74;99815.19;2062823;28;20034;-63
2021/05/02 01:34:40;;;;;;;5.75;4.22;;;;;;;18.53;55.96;99816.06;2063419;28;20041;-62
2021/05/02 01:35:41;;;;;;;6.27;4.50;;;;;;;18.54;55.87;99817.75;2061163;28;20082;-62
2021/05/02 01:36:41;;;;;;;4.90;3.70;;;;;;;18.55;55.72;99814.88;2055929;28;20030;-62
2021/05/02 01:37:44;;;;;;;5.23;4.40;;;;;;;18.54;55.65;99810.41;2062664;28;20117;-62
2021/05/02 01:38:44;;;;;;;5.53;4.35;;;;;;;18.54;55.72;99812.31;2062892;28;20050;-62
2021/05/02 01:39:46;;;;;;;5.47;4.90;;;;;;;18.55;55.47;99814.88;2063226;28;20065;-63
2021/05/02 01:40:47;;;;;;;5.95;3.63;;;;;;;18.56;55.61;99811.13;2062672;28;20166;-62
2021/05/02 01:41:47;;;;;;;7.03;4.33;;;;;;;18.56;55.47;99815.75;2063067;28;20042;-62
2021/05/02 01:42:48;;;;;;;5.70;4.40;;;;;;;18.56;55.37;99818.47;2063061;28;20026;-63
2021/05/02 01:43:49;;;;;;;6.40;4.32;;;;;;;18.57;55.51;99817.44;2062996;28;20025;-62
2021/05/02 01:44:49;;;;;;;5.70;4.20;;;;;;;18.55;55.45;99820.34;2063074;28;20493;-63
2021/05/02 01:45:50;;;;;;;5.63;4.10;;;;;;;18.55;55.48;99814.88;2059321;28;20101;-62
2021/05/02 01:46:52;;;;;;;5.73;4.33;;;;;;;18.55;55.54;99819.50;2058214;28;20073;-62
2021/05/02 01:48:04;;;;;;;5.80;4.32;;;;;;;18.53;55.56;99822.38;2063062;28;20084;-62
2021/05/02 01:49:09;;;;;;;5.78;4.43;;;;;;;18.51;55.58;99816.19;2062902;28;20033;-62
2021/05/02 01:50:11;;;;;;;5.45;4.60;;;;;;;18.53;55.55;99821.50;2062468;28;20122;-63
2021/05/02 01:51:13;;;;;;;6.53;4.43;;;;;;;18.52;55.50;99819.78;2062913;28;20868;-62
2021/05/02 01:52:16;;;;;;;6.03;4.47;;;;;;;18.54;55.52;99823.22;2062052;28;20070;-62
2021/05/02 01:53:17;;;;;;;5.90;3.95;;;;;;;18.53;55.51;99824.25;2062297;28;20162;-62
2021/05/02 01:54:17;;;;;;;5.63;3.83;;;;;;;18.54;55.50;99817.75;2062789;28;20026;-62
2021/05/02 01:55:19;;;;;;;6.83;4.13;;;;;;;18.54;55.56;99823.22;2062869;28;20030;-62
2021/05/02 01:56:21;;;;;;;5.72;4.43;;;;;;;18.54;55.42;99817.75;2056937;28;20022;-62
2021/05/02 01:57:29;;;;;;;5.07;3.67;;;;;;;18.53;55.40;99818.78;2062459;28;20667;-62
2021/05/02 01:58:31;;;;;;;5.97;4.30;;;;;;;18.53;55.64;99821.50;2057618;28;20502;-62
2021/05/02 01:59:34;;;;;;;7.97;4.55;;;;;;;18.53;55.39;99822.38;2059340;28;20130;-62
2021/05/02 02:00:42;;;;;;;4.78;3.97;;;;;;;18.52;55.49;99831.59;2061638;28;20026;-62
2021/05/02 02:01:42;;;;;;;6.20;4.43;;;;;;;18.52;55.40;99827.97;2062342;28;20876;-63
2021/05/02 02:02:43;;;;;;;5.47;4.30;;;;;;;18.52;55.37;99827.97;2061873;28;20085;-64
2021/05/02 02:03:45;;;;;;;6.90;4.43;;;;;;;18.51;55.48;99824.38;2057912;28;20558;-62
2021/05/02 02:04:49;;;;;;;;;;;;;;;18.45;55.55;99825.00;2059531;28;20034;-62
2021/05/02 02:05:50;;;;;;;5.43;4.13;;;;;;;18.46;55.76;99829.44;2062974;28;19921;-62
2021/05/02 02:06:52;;;;;;;5.47;4.40;;;;;;;18.48;55.64;99829.31;2059593;28;20030;-63
2021/05/02 02:07:53;;;;;;;6.05;4.25;;;;;;;18.48;55.64;99832.03;2055427;28;20051;-62
2021/05/02 02:08:55;;;;;;;5.93;4.38;;;;;;;18.48;55.58;99834.75;2055317;28;20033;-62
2021/05/02 02:09:56;;;;;;;;;;;;;;;18.43;55.63;99835.22;2062748;28;20049;-62
2021/05/02 02:10:57;;;;;;;5.35;4.35;;;;;;;18.46;55.69;99837.63;2062357;28;19958;-63
2021/05/02 02:11:59;;;;;;;5.67;3.93;;;;;;;18.47;55.54;99838.50;2063146;28;20030;-63
2021/05/02 02:13:01;;;;;;;7.10;4.20;;;;;;;18.47;55.52;99838.50;2061963;28;20028;-62
2021/05/02 02:14:01;;;;;;;5.45;3.85;;;;;;;18.46;55.75;99831.31;2062688;28;20428;-62
2021/05/02 02:15:03;;;;;;;5.63;4.43;;;;;;;18.48;55.61;99834.75;2060324;28;20049;-62
2021/05/02 02:16:07;;;;;;;6.68;4.13;;;;;;;18.46;55.64;99834.91;2063125;28;20445;-63
2021/05/02 02:17:09;;;;;;;5.72;4.15;;;;;;;18.47;55.64;99836.63;2062522;28;20033;-62
2021/05/02 02:18:11;;;;;;;5.65;3.83;;;;;;;18.47;55.55;99835.75;2060740;28;20022;-62
2021/05/02 02:19:12;;;;;;;6.22;4.10;;;;;;;18.47;55.38;99833.03;2063269;28;20751;-62
2021/05/02 02:20:13;;;;;;;4.97;3.63;;;;;;;18.48;55.52;99837.50;2062112;28;20554;-62
2021/05/02 02:21:16;;;;;;;5.10;3.70;;;;;;;18.48;55.22;99846.53;2063020;28;20037;-62
2021/05/02 02:22:17;;;;;;;4.85;3.55;;;;;;;18.46;55.62;99837.63;2062403;28;20031;-63
2021/05/02 02:23:20;;;;;;;7.55;4.07;;;;;;;18.48;55.46;99840.22;2062883;28;20042;-62
2021/05/02 02:24:40;;;;;;;5.82;4.18;;;;;;;18.47;55.55;99838.50;2062195;28;20109;-63
2021/05/02 02:25:42;;;;;;;5.22;3.72;;;;;;;18.45;55.69;99840.50;2062433;28;20077;-62
2021/05/02 02:26:55;;;;;;;5.32;4.10;;;;;;;18.46;55.58;99842.25;2062906;28;20881;-62
2021/05/02 02:27:57;;;;;;;5.78;3.85;;;;;;;18.47;55.39;99843.94;2061125;28;20097;-63
2021/05/02 02:28:58;;;;;;;;;;;;;;;18.41;55.76;99835.34;2062782;28;20033;-63
2021/05/02 02:30:03;;;;;;;6.53;3.88;;;;;;;18.41;55.64;99843.53;2059948;28;19914;-62
2021/05/02 02:31:06;;;;;;;6.28;4.22;;;;;;;18.42;55.74;99841.66;2062223;28;20537;-63
2021/05/02 02:32:09;;;;;;;7.80;3.97;;;;;;;18.42;55.57;99839.81;2063123;28;20041;-62
2021/05/02 02:33:10;;;;;;;4.75;3.83;;;;;;;18.42;55.71;99842.56;2062507;28;20022;-62
2021/05/02 02:34:13;;;;;;;4.20;3.63;;;;;;;18.42;55.61;99841.66;2061763;28;20064;-62
2021/05/02 02:35:17;;;;;;;4.95;3.80;;;;;;;18.41;55.59;99840.81;2062089;28;20121;-62
2021/05/02 02:36:18;;;;;;;6.22;3.65;;;;;;;18.42;55.51;99842.56;2062096;28;20029;-62
2021/05/02 02:37:21;;;;;;;4.45;3.70;;;;;;;18.43;55.49;99844.25;2060261;28;20030;-62
2021/05/02 02:38:25;;;;;;;5.97;3.97;;;;;;;18.42;55.54;99842.56;2060130;28;20183;-63
2021/05/02 02:39:26;;;;;;;4.45;3.88;;;;;;;18.45;55.61;99845.97;2057607;28;20066;-62
2021/05/02 02:40:28;;;;;;;4.90;4.00;;;;;;;18.42;55.65;99842.56;2062293;28;20030;-62
2021/05/02 02:41:35;;;;;;;4.55;3.63;;;;;;;18.43;55.51;99846.97;2062529;28;20497;-62
2021/05/02 02:42:36;;;;;;;5.43;4.72;;;;;;;18.44;55.64;99856.03;2062427;28;20018;-63
2021/05/02 02:43:41;;;;;;;4.87;3.97;;;;;;;18.45;55.58;99851.41;2062268;28;20026;-62
2021/05/02 02:44:51;;;;;;;5.45;3.88;;;;;;;18.43;55.65;99846.97;2062265;28;20356;-63
2021/05/02 02:45:56;;;;;;;4.72;3.55;;;;;;;18.44;55.67;99850.56;2059537;28;20037;-61
2021/05/02 02:47:00;;;;;;;4.55;3.42;;;;;;;18.45;55.61;99851.41;2062413;28;20040;-62
2021/05/02 02:48:04;;;;;;;5.20;3.75;;;;;;;18.45;55.73;99848.69;2061870;28;20045;-62
2021/05/02 02:49:06;;;;;;;6.53;3.95;;;;;;;18.44;55.78;99856.03;2059783;28;20028;-62
2021/05/02 02:50:11;;;;;;;7.20;4.43;;;;;;;18.47;55.68;99849.41;2062528;28;20026;-63
2021/05/02 02:51:16;;;;;;;5.55;4.13;;;;;;;18.48;55.52;99851.13;2062432;28;20121;-63
2021/05/02 02:52:19;;;;;;;6.40;4.40;;;;;;;18.49;55.68;99852.84;2062560;28;20018;-62
2021/05/02 02:53:21;;;;;;;5.18;3.83;;;;;;;18.50;55.63;99851.84;2062364;28;20164;-61
2021/05/02 02:54:22;;;;;;;5.13;3.83;;;;;;;18.49;55.52;99853.69;2056726;28;20831;-62
2021/05/02 02:55:24;;;;;;;5.05;4.05;;;;;;;18.50;55.63;99854.59;2061800;28;20034;-62
2021/05/02 02:56:28;;;;;;;5.45;4.10;;;;;;;18.48;55.51;99857.44;2062352;28;20484;-62
2021/05/02 02:57:32;;;;;;;4.63;3.58;;;;;;;18.48;55.51;99859.31;2062488;28;20062;-62
2021/05/02 02:58:44;;;;;;;5.25;4.47;;;;;;;18.48;55.64;99854.72;2061803;28;20022;-62
2021/05/02 02:59:46;;;;;;;4.70;3.60;;;;;;;18.48;55.53;99856.59;2061604;28;20034;-62
2021/05/02 03:00:48;;;;;;;5.10;3.95;;;;;;;18.47;55.67;99857.59;2062576;28;20030;-63
2021/05/02 03:01:49;;;;;;;5.65;3.95;;;;;;;18.47;55.75;99854.88;2062603;28;20097;-62
2021/05/02 03:03:11;;;;;;;6.20;4.30;;;;;;;18.46;55.57;99853.16;2062432;28;20088;-62
2021/05/02 03:04:18;;;;;;;4.45;3.40;;;;;;;18.46;55.53;99853.16;2057287;28;20038;-62
2021/05/02 03:05:22;;;;;;;5.07;4.00;;;;;;;18.48;55.54;99859.31;2062627;28;20026;-62
2021/05/02 03:06:28;;;;;;;5.03;3.70;;;;;;;18.48;55.58;99852.00;2059235;28;20032;-62
2021/05/02 03:07:32;;;;;;;5.82;4.43;;;;;;;18.48;55.51;99852.00;2058910;28;20569;-62
2021/05/02 03:08:37;;;;;;;4.03;3.60;;;;;;;18.49;55.50;99858.31;2061811;28;20061;-62
2021/05/02 03:09:40;;;;;;;5.05;3.95;;;;;;;18.49;55.45;99859.16;2061469;28;20031;-62
2021/05/02 03:10:41;;;;;;;4.38;3.42;;;;;;;18.49;55.32;99858.31;2061425;28;20030;-62
2021/05/02 03:11:42;;;;;;;4.45;3.45;;;;;;;18.50;55.39;99854.59;2054819;28;20101;-62
2021/05/02 03:12:43;;;;;;;4.60;3.92;;;;;;;18.50;55.38;99849.13;2062138;28;20038;-63
2021/05/02 03:13:45;;;;;;;4.10;3.40;;;;;;;18.49;55.36;99858.31;2062675;28;20038;-62
2021/05/02 03:14:48;;;;;;;4.35;3.38;;;;;;;18.49;55.43;99858.31;2061260;28;20038;-62
2021/05/02 03:15:49;;;;;;;4.88;3.90;;;;;;;18.49;55.23;99859.16;2062218;28;20030;-62
2021/05/02 03:16:51;;;;;;;6.03;3.70;;;;;;;18.49;55.20;99858.31;2062329;28;20091;-62
2021/05/02 03:18:05;;;;;;;4.75;3.85;;;;;;;18.48;55.22;99859.31;2062333;28;20129;-62
2021/05/02 03:19:21;;;;;;;4.55;4.00;;;;;;;18.46;55.33;99859.47;2062266;28;20026;-62
2021/05/02 03:20:26;;;;;;;5.57;3.92;;;;;;;18.46;55.40;99858.63;2061148;28;20029;-62
2021/05/02 03:21:37;;;;;;;3.97;3.10;;;;;;;18.45;55.37;99863.22;2059717;28;20058;-62
2021/05/02 03:22:42;;;;;;;5.47;3.47;;;;;;;18.47;55.44;99857.59;2062488;28;20547;-62
2021/05/02 03:23:43;;;;;;;4.35;3.58;;;;;;;18.46;55.54;99864.94;2061945;28;20044;-62
2021/05/02 03:24:48;;;;;;;5.28;3.75;;;;;;;18.46;55.53;99853.16;2059679;28;20031;-62
2021/05/02 03:25:50;;;;;;;4.03;3.33;;;;;;;18.45;55.57;99856.88;2062718;28;20393;-62
2021/05/02 03:26:56;;;;;;;5.15;3.58;;;;;;;18.44;55.36;99856.03;2059779;28;20030;-62
2021/05/02 03:28:05;;;;;;;3.85;3.30;;;;;;;18.44;55.57;99856.03;2060914;28;21926;-62
2021/05/02 03:29:08;;;;;;;5.10;3.20;;;;;;;18.46;55.53;99864.06;2054581;28;20041;-62
2021/05/02 03:30:10;;;;;;;4.53;3.58;;;;;;;18.44;55.46;99858.75;2060512;28;20026;-62
2021/05/02 03:31:12;;;;;;;4.72;3.13;;;;;;;18.44;55.74;99864.22;2061776;28;20145;-63
2021/05/02 03:32:14;;;;;;;5.55;3.78;;;;;;;18.43;55.56;99863.38;2062366;28;20045;-62
2021/05/02 03:33:16;;;;;;;6.07;4.47;;;;;;;18.43;55.68;99855.19;2061681;28;20033;-62
2021/05/02 03:34:18;;;;;;;4.93;3.25;;;;;;;18.45;55.47;99865.94;2062568;28;20117;-62
2021/05/02 03:35:22;;;;;;;5.03;3.90;;;;;;;18.45;55.62;99862.34;2061844;28;20105;-63
2021/05/02 03:36:34;;;;;;;4.43;3.60;;;;;;;18.43;55.54;99860.63;2062013;28;20141;-63
2021/05/02 03:37:36;;;;;;;4.28;3.75;;;;;;;18.42;55.67;99864.38;2051891;28;20749;-62
2021/05/02 03:38:45;;;;;;;5.63;3.90;;;;;;;18.42;55.47;99858.94;2058711;28;20038;-62
2021/05/02 03:39:50;;;;;;;3.97;3.30;;;;;;;18.43;55.52;99865.25;2061535;28;20409;-62
2021/05/02 03:40:51;;;;;;;5.22;3.70;;;;;;;18.42;55.60;99869.84;2062231;28;20119;-63
2021/05/02 03:41:51;;;;;;;5.18;3.55;;;;;;;18.42;55.72;99867.13;2061828;28;20138;-63
2021/05/02 03:42:52;;;;;;;4.57;3.47;;;;;;;18.42;55.57;99869.84;2061618;28;20623;-63
2021/05/02 03:43:53;;;;;;;4.15;3.22;;;;;;;18.43;55.60;99867.97;2058776;28;20057;-62
2021/05/02 03:44:54;;;;;;;7.13;3.77;;;;;;;18.42;55.56;99872.56;2061311;28;20118;-62
2021/05/02 03:45:54;;;;;;;4.37;3.07;;;;;;;18.42;55.42;99869.84;2054490;28;20414;-62
2021/05/02 03:46:55;;;;;;;4.33;3.80;;;;;;;18.42;55.40;99864.38;2059851;28;20030;-62
2021/05/02 03:47:55;;;;;;;4.57;3.37;;;;;;;18.41;55.40;99873.56;2060698;28;20062;-62
2021/05/02 03:49:13;;;;;;;6.60;3.87;;;;;;;18.39;55.44;99872.84;2059472;28;20030;-63
2021/05/02 03:50:14;;;;;;;4.65;3.78;;;;;;;18.41;55.47;99872.72;2061737;28;20149;-62
2021/05/02 03:51:14;;;;;;;4.63;3.63;;;;;;;18.41;55.32;99872.72;2058943;28;20022;-62
2021/05/02 03:52:15;;;;;;;4.60;3.97;;;;;;;18.42;55.38;99879.88;2062332;28;20029;-63
2021/05/02 03:53:16;;;;;;;6.53;3.50;;;;;;;18.41;55.29;99879.03;2062027;28;20104;-62
2021/05/02 03:54:16;;;;;;;5.43;3.73;;;;;;;18.40;55.36;99877.31;2062108;28;20034;-62
2021/05/02 03:55:17;;;;;;;4.23;3.50;;;;;;;18.39;55.40;99874.72;2062059;28;20073;-62
2021/05/02 03:56:38;;;;;;;4.10;3.08;;;;;;;18.39;55.27;99883.75;2060420;28;20081;-62
2021/05/02 03:57:38;;;;;;;5.38;3.78;;;;;;;18.39;55.36;99881.03;2057366;28;20039;-63
2021/05/02 03:58:38;;;;;;;4.97;3.53;;;;;;;18.39;55.33;99881.03;2060072;28;20028;-63
2021/05/02 03:59:39;;;;;;;5.00;3.33;;;;;;;18.40;55.45;99882.78;2060481;28;20030;-62
2021/05/02 04:00:41;;;;;;;4.37;3.37;;;;;;;18.39;55.50;99883.75;2060969;28;20026;-63
2021/05/02 04:01:56;;;;;;;4.85;3.25;;;;;;;18.39;55.35;99882.91;2056989;28;20073;-61
2021/05/02 04:02:56;;;;;;;4.93;3.65;;;;;;;18.38;55.35;99881.22;2059090;28;20107;-62
2021/05/02 04:03:59;;;;;;;4.20;3.20;;;;;;;18.38;55.34;99884.78;2061310;28;20122;-63
2021/05/02 04:04:59;;;;;;;4.15;3.50;;;;;;;18.39;55.46;99888.38;2061472;28;20030;-62
2021/05/02 04:06:00;;;;;;;4.50;3.63;;;;;;;18.38;55.60;99884.78;2061283;28;20022;-63
2021/05/02 04:07:09;;;;;;;5.27;3.20;;;;;;;18.37;55.45;99883.09;2061702;28;20041;-62
2021/05/02 04:08:10;;;;;;;4.57;3.65;;;;;;;18.38;55.55;99890.25;2059584;28;20026;-62
2021/05/02 04:09:12;;;;;;;4.63;3.70;;;;;;;18.39;55.37;99891.09;2061562;28;20022;-62
2021/05/02 04:10:13;;;;;;;4.65;3.30;;;;;;;18.38;55.63;99886.66;2056655;28;20141;-62
2021/05/02 04:11:13;;;;;;;4.53;3.70;;;;;;;18.39;55.67;99883.75;2062130;28;20714;-63
2021/05/02 04:12:14;;;;;;;5.13;3.50;;;;;;;18.40;55.64;99885.50;2061613;28;20090;-62
2021/05/02 04:13:14;;;;;;;4.73;3.60;;;;;;;18.40;55.58;99884.66;2061871;28;20042;-62
2021/05/02 04:14:17;;;;;;;4.83;3.43;;;;;;;18.42;55.64;99883.50;2061959;28;20123;-62
2021/05/02 04:15:18;;;;;;;5.00;3.60;;;;;;;18.41;55.69;99884.47;2054989;28;20798;-63
2021/05/02 04:16:18;;;;;;;3.55;3.17;;;;;;;18.42;55.63;99885.34;2062214;28;20030;-62
2021/05/02 04:17:19;;;;;;;5.10;3.43;;;;;;;18.42;55.59;99883.50;2062062;28;20691;-62
2021/05/02 04:18:19;;;;;;;4.00;3.13;;;;;;;18.43;55.70;99887.91;2061409;28;20563;-63
2021/05/02 04:19:20;;;;;;;4.00;2.70;;;;;;;18.44;55.57;99888.78;2062248;28;20030;-62
2021/05/02 04:20:20;;;;;;;4.10;3.07;;;;;;;18.43;55.58;99887.06;2061079;28;20081;-62
2021/05/02 04:21:21;;;;;;;5.03;3.63;;;;;;;18.45;55.64;99884.16;2062065;28;20111;-62
2021/05/02 04:22:22;;;;;;;4.47;3.47;;;;;;;18.42;55.48;99886.22;2061933;28;20022;-63
2021/05/02 04:23:22;;;;;;;7.23;3.27;;;;;;;18.44;55.58;99883.31;2061837;28;20058;-62
2021/05/02 04:24:24;;;;;;;3.80;2.80;;;;;;;18.45;55.50;99886.91;2061932;28;20056;-63
2021/05/02 04:25:24;;;;;;;4.28;3.08;;;;;;;18.45;55.58;99895.09;2061816;28;20095;-62
2021/05/02 04:26:24;;;;;;;4.10;3.37;;;;;;;18.44;55.59;99894.22;2058444;28;20065;-62
2021/05/02 04:27:25;;;;;;;4.60;3.60;;;;;;;18.42;55.47;99891.69;2061971;28;20261;-62
2021/05/02 04:28:26;;;;;;;4.87;3.40;;;;;;;18.43;55.40;99892.53;2057350;28;20114;-62
2021/05/02 04:29:28;;;;;;;5.20;3.00;;;;;;;18.43;55.33;99890.66;2062175;28;20815;-63
2021/05/02 04:30:28;;;;;;;4.25;3.65;;;;;;;18.43;55.57;99895.25;2061840;28;20177;-62
2021/05/02 04:31:29;;;;;;;4.37;3.00;;;;;;;18.41;55.44;99892.66;2061523;28;20576;-62
2021/05/02 04:32:29;;;;;;;5.07;3.40;;;;;;;18.42;55.54;99888.06;2061961;28;20022;-63
2021/05/02 04:33:30;;;;;;;4.33;3.63;;;;;;;18.42;55.43;99886.22;2061485;28;20080;-62
2021/05/02 04:34:30;;;;;;;4.30;2.87;;;;;;;18.43;55.42;99896.09;2061754;28;20080;-62
2021/05/02 04:35:31;;;;;;;4.70;2.93;;;;;;;18.43;55.50;99898.84;2060926;28;20111;-62
2021/05/02 04:36:31;;;;;;;3.67;3.23;;;;;;;18.43;55.42;99896.09;2061694;28;20023;-62
2021/05/02 04:37:32;;;;;;;5.03;2.97;;;;;;;18.44;55.66;99902.41;2062241;28;20026;-62
2021/05/02 04:38:33;;;;;;;3.50;2.90;;;;;;;18.44;55.44;99905.16;2059168;28;20566;-62
2021/05/02 04:39:34;;;;;;;4.55;3.42;;;;;;;18.43;55.41;99909.75;2061795;28;20031;-62
2021/05/02 04:40:34;;;;;;;4.83;3.23;;;;;;;18.44;55.08;99910.59;2061287;28;20022;-63
2021/05/02 04:41:35;;;;;;;3.97;3.20;;;;;;;18.45;55.40;99912.34;2061884;28;20121;-62
2021/05/02 04:42:35;;;;;;;4.83;2.93;;;;;;;18.43;55.22;99904.28;2061381;28;20101;-62
2021/05/02 04:43:36;;;;;;;4.40;3.10;;;;;;;18.42;55.37;99910.78;2061576;28;20037;-62
2021/05/02 04:44:36;;;;;;;3.87;2.87;;;;;;;18.42;55.21;99910.78;2058590;28;20030;-62
2021/05/02 04:45:38;;;;;;;3.70;2.97;;;;;;;18.43;55.22;99915.22;2061084;28;20095;-63
2021/05/02 04:46:39;;;;;;;3.95;2.88;;;;;;;18.42;55.30;99918.97;2060668;28;20121;-62
2021/05/02 04:47:39;;;;;;;3.78;3.08;;;;;;;18.42;55.38;99918.09;2062443;28;20077;-63
2021/05/02 04:48:40;;;;;;;4.43;2.80;;;;;;;18.43;55.31;99914.34;2055246;28;20066;-62
2021/05/02 04:49:41;;;;;;;3.38;2.92;;;;;;;18.42;55.14;99918.97;2057949;28;20042;-62
2021/05/02 04:50:41;;;;;;;4.67;3.27;;;;;;;18.42;55.24;99918.09;2062302;28;20031;-62
2021/05/02 04:51:42;;;;;;;5.07;3.30;;;;;;;18.42;55.34;99918.09;2061472;28;20037;-62
2021/05/02 04:52:43;;;;;;;5.53;3.83;;;;;;;18.41;55.26;99919.09;2062279;28;20022;-62
2021/05/02 04:53:43;;;;;;;4.03;3.10;;;;;;;18.41;55.27;99922.69;2062381;28;20030;-62
2021/05/02 04:54:44;;;;;;;4.13;3.30;;;;;;;18.41;55.31;99921.84;2063391;28;20117;-62
2021/05/02 04:55:45;;;;;;;3.17;2.87;;;;;;;18.39;55.32;99924.69;2063770;28;20659;-62
2021/05/02 04:56:47;;;;;;;4.97;3.53;;;;;;;18.41;55.25;99919.97;2063079;28;20539;-62